createdAt,value
2023-03-05T00:04:15.243Z,8.20
2023-03-05T00:07:00.510Z,7.63
2023-03-05T00:09:45.895Z,8.05
2023-03-05T00:12:30.909Z,8.32
2023-03-05T00:19:48.668Z,10.40
2023-03-05T00:22:35.428Z,11.95
2023-03-05T00:25:20.429Z,12.73
2023-03-05T00:28:06.025Z,11.40
2023-03-05T00:47:18.378Z,10.63
2023-03-05T00:50:05.194Z,11.07
2023-03-05T00:52:51.609Z,11.07
2023-03-05T00:55:36.810Z,10.55
2023-03-05T00:58:22.042Z,10.70
2023-03-05T01:46:44.745Z,8.13
2023-03-05T01:49:36.528Z,8.43
2023-03-05T01:52:25.194Z,8.38
2023-03-05T01:55:14.938Z,7.72
2023-03-05T01:58:04.955Z,7.80
2023-03-05T02:46:47.684Z,6.50
2023-03-05T02:49:33.129Z,6.70
2023-03-05T02:52:18.374Z,6.60
2023-03-05T02:55:04.339Z,5.82
2023-03-05T02:57:49.374Z,6.35
2023-03-05T03:48:04.415Z,5.00
2023-03-05T03:50:49.917Z,5.40
2023-03-05T03:53:35.414Z,5.28
2023-03-05T03:56:20.742Z,4.85
2023-03-05T03:59:06.153Z,5.10
2023-03-05T04:47:49.364Z,4.13
2023-03-05T04:50:34.704Z,4.22
2023-03-05T04:53:19.970Z,4.30
2023-03-05T04:56:05.293Z,4.47
2023-03-05T04:58:50.867Z,4.32
2023-03-05T05:47:19.678Z,3.67
2023-03-05T05:50:05.967Z,3.47
2023-03-05T05:52:51.965Z,3.65
2023-03-05T05:55:40.363Z,3.93
2023-03-05T05:58:25.590Z,3.45
2023-03-05T06:01:21.160Z,3.50
2023-03-05T06:04:06.751Z,3.40
2023-03-05T06:06:52.005Z,3.85
2023-03-05T06:09:37.432Z,3.20
2023-03-05T06:12:22.720Z,3.35
2023-03-05T06:15:08.529Z,3.20
2023-03-05T06:17:54.537Z,3.10
2023-03-05T06:20:39.636Z,3.20
2023-03-05T06:23:25.721Z,3.00
2023-03-05T06:26:12.828Z,3.42
2023-03-05T06:28:59.014Z,3.58
2023-03-05T06:31:44.121Z,3.63
2023-03-05T06:34:29.286Z,3.50
2023-03-05T06:37:14.544Z,3.40
2023-03-05T06:39:59.883Z,3.17
2023-03-05T06:42:44.931Z,3.42
2023-03-05T06:45:29.959Z,3.20
2023-03-05T06:48:15.361Z,2.75
2023-03-05T06:51:00.981Z,3.23
2023-03-05T06:53:49.299Z,3.13
2023-03-05T06:56:36.678Z,2.95
2023-03-05T06:59:21.916Z,2.85
2023-03-05T07:02:10.858Z,3.00
2023-03-05T07:04:56.225Z,2.93
2023-03-05T07:07:41.374Z,3.13
2023-03-05T07:10:26.587Z,3.35
2023-03-05T07:13:11.513Z,2.83
2023-03-05T07:15:56.699Z,2.92
2023-03-05T07:18:42.347Z,3.00
2023-03-05T07:21:30.100Z,2.92
2023-03-05T07:24:15.366Z,2.75
2023-03-05T07:27:00.796Z,3.10
2023-03-05T07:29:46.209Z,2.50
2023-03-05T07:32:32.314Z,2.80
2023-03-05T07:35:18.022Z,2.45
2023-03-05T07:38:03.176Z,3.00
2023-03-05T07:40:49.022Z,2.75
2023-03-05T07:43:34.912Z,2.90
2023-03-05T07:46:22.498Z,2.57
2023-03-05T07:49:07.765Z,2.60
2023-03-05T07:51:53.121Z,2.60
2023-03-05T07:54:39.620Z,2.97
2023-03-05T07:57:24.754Z,2.70
2023-03-05T08:00:10.892Z,2.70
2023-03-05T08:02:58.926Z,2.35
2023-03-05T08:05:44.475Z,2.90
2023-03-05T08:08:29.749Z,2.88
2023-03-05T08:11:16.228Z,2.30
2023-03-05T08:14:01.463Z,2.50
2023-03-05T08:16:48.330Z,2.30
2023-03-05T08:19:33.673Z,2.40
2023-03-05T08:22:20.462Z,2.05
2023-03-05T08:25:07.221Z,2.10
2023-03-05T08:27:52.286Z,1.83
2023-03-05T08:30:37.472Z,2.30
2023-03-05T08:33:22.440Z,2.20
2023-03-05T08:36:08.894Z,2.22
2023-03-05T08:38:54.142Z,2.45
2023-03-05T08:41:39.587Z,2.20
2023-03-05T08:44:24.836Z,2.30
2023-03-05T08:47:09.807Z,2.10
2023-03-05T08:49:57.126Z,1.95
2023-03-05T08:52:42.227Z,2.03
2023-03-05T08:55:27.625Z,1.93
2023-03-05T08:58:14.736Z,2.25
2023-03-05T09:01:01.189Z,2.33
2023-03-05T09:03:46.261Z,2.20
2023-03-05T09:06:31.545Z,2.20
2023-03-05T09:09:16.909Z,2.00
2023-03-05T09:12:02.802Z,1.80
2023-03-05T09:14:47.919Z,1.50
2023-03-05T09:17:32.900Z,1.23
2023-03-05T09:20:18.655Z,1.10
2023-03-05T09:23:04.988Z,1.37
2023-03-05T09:25:50.241Z,1.73
2023-03-05T09:28:35.793Z,1.40
2023-03-05T09:31:20.925Z,1.42
2023-03-05T09:34:08.212Z,1.40
2023-03-05T09:36:53.737Z,1.97
2023-03-05T09:39:40.043Z,1.40
2023-03-05T09:42:48.685Z,1.40
2023-03-05T09:45:44.652Z,1.60
2023-03-05T09:48:51.092Z,1.20
2023-03-05T09:51:40.405Z,1.30
2023-03-05T09:54:32.723Z,1.33
2023-03-05T09:57:28.857Z,1.52
2023-03-05T10:00:57.284Z,1.60
2023-03-05T10:04:01.719Z,1.75
2023-03-05T10:07:15.251Z,1.30
2023-03-05T10:10:13.335Z,1.30
2023-03-05T10:13:04.443Z,1.50
2023-03-05T10:15:58.813Z,1.33
2023-03-05T10:19:07.045Z,1.40
2023-03-05T10:22:19.541Z,1.20
2023-03-05T10:25:26.254Z,1.20
2023-03-05T10:28:40.852Z,1.35
2023-03-05T10:31:29.166Z,1.25
2023-03-05T10:34:38.232Z,1.50
2023-03-05T10:37:35.890Z,1.40
2023-03-05T10:40:27.929Z,1.30
2023-03-05T10:43:27.622Z,1.45
2023-03-05T10:46:17.496Z,1.50
2023-03-05T10:49:07.507Z,1.73
2023-03-05T10:51:55.482Z,1.30
2023-03-05T10:54:42.740Z,1.10
2023-03-05T10:57:32.112Z,1.30
2023-03-05T11:00:27.717Z,1.42
2023-03-05T11:03:13.187Z,1.33
2023-03-05T11:06:02.251Z,1.40
2023-03-05T11:08:47.574Z,1.40
2023-03-05T11:11:33.298Z,1.23
2023-03-05T11:14:31.057Z,1.52
2023-03-05T11:17:30.314Z,1.73
2023-03-05T11:20:27.857Z,1.50
2023-03-05T11:23:24.405Z,1.50
2023-03-05T11:26:12.963Z,1.38
2023-03-05T11:29:00.944Z,1.50
2023-03-05T11:31:45.988Z,1.88
2023-03-05T11:34:35.389Z,2.00
2023-03-05T11:37:32.023Z,2.45
2023-03-05T11:40:24.782Z,1.80
2023-03-05T11:43:16.101Z,1.90
2023-03-05T11:46:05.407Z,2.08
2023-03-05T11:48:54.371Z,1.73
2023-03-05T11:51:59.795Z,1.60
2023-03-05T11:54:54.001Z,1.42
2023-03-05T11:58:03.797Z,1.83
2023-03-05T12:00:49.433Z,1.65
2023-03-05T12:03:38.755Z,1.90
2023-03-05T12:06:34.110Z,1.70
2023-03-05T12:09:37.800Z,1.90
2023-03-05T12:12:44.646Z,1.73
2023-03-05T12:15:47.587Z,1.60
2023-03-05T12:18:48.552Z,1.90
2023-03-05T12:21:36.943Z,1.55
2023-03-05T12:24:28.008Z,1.50
2023-03-05T12:27:16.172Z,1.83
2023-03-05T12:30:02.031Z,1.60
2023-03-05T12:32:47.299Z,1.90
2023-03-05T12:35:38.460Z,1.70
2023-03-05T12:38:34.401Z,1.50
2023-03-05T12:41:22.582Z,1.58
2023-03-05T12:44:08.671Z,1.70
2023-03-05T12:47:12.573Z,1.43
2023-03-05T12:50:00.968Z,1.27
2023-03-05T12:52:46.519Z,1.10
2023-03-05T12:55:47.311Z,1.77
2023-03-05T12:58:53.674Z,1.48
2023-03-05T13:01:51.166Z,1.50
2023-03-05T13:04:41.984Z,1.23
2023-03-05T13:07:27.308Z,1.40
2023-03-05T13:10:29.346Z,1.67
2023-03-05T13:13:16.430Z,1.85
2023-03-05T13:16:02.259Z,1.40
2023-03-05T13:18:49.091Z,1.60
2023-03-05T13:21:35.376Z,2.00
2023-03-05T13:24:22.112Z,1.70
2023-03-05T13:27:39.884Z,1.70
2023-03-05T13:30:27.654Z,1.80
2023-03-05T13:33:20.139Z,1.50
2023-03-05T13:36:06.528Z,2.08
2023-03-05T13:38:52.915Z,2.20
2023-03-05T13:41:37.962Z,2.08
2023-03-05T13:44:23.148Z,2.60
2023-03-05T13:47:21.147Z,5.50
2023-03-05T13:50:09.676Z,3.03
2023-03-05T13:52:55.799Z,2.50
2023-03-05T13:55:41.992Z,2.65
2023-03-05T13:58:48.564Z,3.10
2023-03-05T14:01:36.523Z,2.90
2023-03-05T14:04:28.856Z,3.00
2023-03-05T14:07:20.286Z,2.75
2023-03-05T14:10:31.655Z,3.13
2023-03-05T14:13:35.294Z,3.43
2023-03-05T14:16:29.001Z,2.63
2023-03-05T14:19:37.143Z,2.97
2023-03-05T14:22:37.354Z,2.95
2023-03-05T14:25:43.116Z,3.08
2023-03-05T14:28:29.710Z,2.93
2023-03-05T14:31:17.986Z,3.03
2023-03-05T14:34:06.268Z,2.72
2023-03-05T14:36:54.188Z,3.42
2023-03-05T14:39:49.478Z,3.30
2023-03-05T14:42:39.248Z,2.80
2023-03-05T14:45:28.282Z,2.78
2023-03-05T14:48:15.909Z,3.03
2023-03-05T14:51:01.239Z,3.30
2023-03-05T14:53:48.628Z,2.97
2023-03-05T14:56:33.958Z,2.83
2023-03-05T14:59:23.270Z,2.63
2023-03-05T15:02:15.787Z,2.97
2023-03-05T15:05:01.317Z,2.75
2023-03-05T15:07:47.343Z,2.42
2023-03-05T15:10:32.717Z,2.60
2023-03-05T15:13:18.482Z,2.58
2023-03-05T15:16:06.015Z,3.13
2023-03-05T15:18:51.248Z,2.45
2023-03-05T15:21:37.195Z,2.78
2023-03-05T15:24:22.854Z,2.50
2023-03-05T15:27:08.640Z,3.03
2023-03-05T15:29:54.101Z,2.97
2023-03-05T15:32:39.369Z,2.58
2023-03-05T15:35:25.713Z,3.10
2023-03-05T15:38:11.306Z,2.93
2023-03-05T15:40:56.698Z,2.55
2023-03-05T15:43:42.098Z,3.40
2023-03-05T15:46:27.755Z,3.15
2023-03-05T15:49:14.006Z,3.20
2023-03-05T15:51:59.557Z,3.70
2023-03-05T15:54:44.608Z,3.38
2023-03-05T15:57:29.821Z,3.58
2023-03-05T16:00:18.586Z,3.25
2023-03-05T16:03:04.402Z,3.92
2023-03-05T16:05:49.709Z,4.00
2023-03-05T16:08:36.801Z,4.05
2023-03-05T16:11:22.276Z,3.67
2023-03-05T16:14:09.956Z,3.67
2023-03-05T16:16:59.161Z,3.53
2023-03-05T16:19:46.929Z,4.33
2023-03-05T16:22:32.433Z,3.95
2023-03-05T16:25:18.050Z,4.30
2023-03-05T16:28:03.659Z,3.92
2023-03-05T16:30:54.019Z,3.72
2023-03-05T16:33:39.234Z,4.10
2023-03-05T16:36:26.973Z,3.92
2023-03-05T16:39:12.011Z,4.20
2023-03-05T16:41:57.742Z,4.05
2023-03-05T16:44:44.253Z,3.70
2023-03-05T16:47:30.029Z,3.90
2023-03-05T16:50:15.067Z,4.10
2023-03-05T16:53:00.343Z,3.88
2023-03-05T16:55:45.632Z,3.40
2023-03-05T16:58:31.828Z,3.95
2023-03-05T17:01:19.669Z,3.63
2023-03-05T17:04:05.055Z,3.63
2023-03-05T17:06:50.581Z,3.80
2023-03-05T17:09:35.776Z,3.53
2023-03-05T17:12:22.343Z,3.25
2023-03-05T17:15:08.169Z,3.60
2023-03-05T17:17:53.475Z,3.50
2023-03-05T17:20:38.554Z,3.83
2023-03-05T17:23:24.292Z,3.60
2023-03-05T17:26:12.670Z,3.75
2023-03-05T17:28:59.788Z,3.40
2023-03-05T17:31:45.437Z,3.75
2023-03-05T17:34:36.708Z,3.55
2023-03-05T17:37:23.130Z,3.40
2023-03-05T17:40:11.396Z,4.05
2023-03-05T17:42:56.455Z,3.33
2023-03-05T17:45:50.056Z,3.40
2023-03-05T17:48:21.800Z,3.90
2023-03-05T17:51:08.385Z,3.40
2023-03-05T17:53:53.312Z,3.47
2023-03-05T17:56:38.839Z,3.30
2023-03-05T17:59:25.222Z,3.30
2023-03-05T18:02:11.016Z,3.15
2023-03-05T18:04:56.333Z,3.38
2023-03-05T18:07:41.662Z,3.50
2023-03-05T18:10:28.129Z,3.50
2023-03-05T18:13:13.498Z,3.25
2023-03-05T18:15:59.987Z,4.00
2023-03-05T18:18:46.535Z,3.90
2023-03-05T18:21:31.860Z,4.28
2023-03-05T18:24:16.884Z,13.73
2023-03-05T18:27:02.411Z,23.23
2023-03-05T18:29:48.102Z,32.55
2023-03-05T18:32:33.731Z,30.30
2023-03-05T18:35:19.414Z,36.72
2023-03-05T18:38:05.056Z,40.00
2023-03-05T18:40:53.169Z,41.92
2023-03-05T18:43:38.196Z,41.28
2023-03-05T18:46:24.400Z,39.35
2023-03-05T18:49:09.992Z,38.50
2023-03-05T18:51:55.279Z,39.23
2023-03-05T18:54:40.563Z,37.40
2023-03-05T18:57:25.881Z,39.30
2023-03-05T19:00:20.760Z,40.50
2023-03-05T19:03:06.761Z,40.85
2023-03-05T19:05:52.053Z,38.90
2023-03-05T19:08:37.170Z,39.58
2023-03-05T19:11:23.294Z,38.83
2023-03-05T19:14:08.298Z,36.80
2023-03-05T19:16:53.423Z,38.67
2023-03-05T19:19:42.593Z,40.07
2023-03-05T19:22:29.450Z,46.00
2023-03-05T19:25:15.133Z,46.63
2023-03-05T19:28:00.462Z,42.17
2023-03-05T19:30:48.996Z,35.13
2023-03-05T19:33:34.183Z,31.40
2023-03-05T19:36:19.196Z,31.20
2023-03-05T19:39:05.836Z,22.33
2023-03-05T19:41:51.028Z,19.00
2023-03-05T19:44:36.215Z,16.42
2023-03-05T19:47:21.597Z,14.43
2023-03-05T19:50:07.544Z,14.18
2023-03-05T19:52:52.998Z,13.75
2023-03-05T19:55:41.637Z,13.35
2023-03-05T19:58:26.951Z,13.80
2023-03-05T20:01:15.514Z,12.90
2023-03-05T20:04:03.475Z,13.95
2023-03-05T20:06:48.945Z,14.27
2023-03-05T20:09:34.405Z,13.38
2023-03-05T20:12:19.675Z,13.98
2023-03-05T20:15:05.599Z,12.90
2023-03-05T20:17:52.867Z,13.05
2023-03-05T20:20:38.127Z,12.52
2023-03-05T20:23:24.519Z,13.07
2023-03-05T20:26:09.986Z,13.23
2023-03-05T20:28:56.337Z,13.33
2023-03-05T20:31:42.237Z,11.80
2023-03-05T20:34:27.918Z,11.73
2023-03-05T20:37:13.207Z,12.85
2023-03-05T20:39:58.460Z,11.48
2023-03-05T20:42:44.022Z,11.83
2023-03-05T20:45:29.192Z,11.93
2023-03-05T20:48:14.650Z,11.43
2023-03-05T20:51:11.073Z,11.05
2023-03-05T20:53:58.914Z,11.02
2023-03-05T20:56:44.426Z,11.07
2023-03-05T20:59:29.727Z,10.13
2023-03-05T21:02:15.222Z,11.20
2023-03-05T21:05:00.335Z,10.02
2023-03-05T21:07:46.377Z,9.27
2023-03-05T21:10:31.733Z,7.33
2023-03-05T21:13:16.878Z,6.68
2023-03-05T21:16:09.979Z,6.18
2023-03-05T21:18:57.117Z,5.65
2023-03-05T21:21:45.535Z,5.50
2023-03-05T21:24:42.536Z,5.43
2023-03-05T21:27:28.400Z,6.40
2023-03-05T21:30:14.251Z,6.13
2023-03-05T21:33:06.531Z,5.40
2023-03-05T21:35:53.200Z,5.60
2023-03-05T21:38:38.784Z,4.90
2023-03-05T21:41:25.995Z,5.50
2023-03-05T21:44:12.945Z,5.68
2023-03-05T21:46:58.228Z,4.85
2023-03-05T21:49:43.827Z,5.35
2023-03-05T21:52:29.094Z,4.80
2023-03-05T21:55:17.430Z,4.18
2023-03-05T21:58:03.658Z,3.67
2023-03-05T22:00:48.854Z,4.20
2023-03-05T22:03:34.073Z,3.92
2023-03-05T22:06:20.470Z,3.57
2023-03-05T22:09:05.596Z,3.50
2023-03-05T22:11:50.658Z,3.78
2023-03-05T22:14:36.190Z,4.03
2023-03-05T22:17:21.487Z,3.70
2023-03-05T22:20:08.204Z,3.33
2023-03-05T22:22:53.342Z,3.33
2023-03-05T22:25:38.870Z,3.40
2023-03-05T22:28:24.437Z,3.45
2023-03-05T22:31:10.361Z,3.55
2023-03-05T22:33:55.568Z,3.90
2023-03-05T22:36:40.570Z,2.80
2023-03-05T22:39:25.918Z,2.90
2023-03-05T22:42:11.069Z,2.88
2023-03-05T22:44:58.154Z,3.30
2023-03-05T22:47:46.675Z,3.00
2023-03-05T22:50:31.806Z,2.92
2023-03-05T22:53:17.016Z,2.83
2023-03-05T22:56:14.676Z,2.78
2023-03-05T22:58:59.799Z,2.50
2023-03-05T23:01:45.220Z,2.67
2023-03-05T23:04:49.803Z,2.63
2023-03-05T23:07:37.475Z,2.60
2023-03-05T23:10:26.992Z,2.67
2023-03-05T23:13:12.398Z,2.20
2023-03-05T23:15:57.528Z,2.27
2023-03-05T23:18:42.704Z,2.25
2023-03-05T23:21:27.922Z,2.20
2023-03-05T23:24:13.171Z,2.28
2023-03-05T23:26:59.438Z,2.40
2023-03-05T23:30:22.773Z,2.27
2023-03-05T23:33:15.126Z,2.40
2023-03-05T23:36:01.323Z,2.13
2023-03-05T23:38:46.578Z,2.10
2023-03-05T23:41:31.775Z,2.10
2023-03-05T23:44:17.189Z,2.20
2023-03-05T23:47:02.405Z,2.33
2023-03-05T23:49:47.692Z,2.28
2023-03-05T23:52:33.210Z,2.08
2023-03-05T23:55:20.863Z,2.38
2023-03-05T23:58:06.466Z,2.63
